Portada
METAR-TAF:

METAR-TAF

Aeroports :

Kosrae, Micronèsia

latitud: 05-21N, longitud: 162-57E, altitud: 3 m

Observació

L'informe es va fer fa 12 hores i 51 minuts, a les 23:50 UTC
Vent 8 kt del Nord-Est
Temperatura 31°C
Humitat 71%
Pressió 1011 hPa
Visibilitat: 16.1 km
Núvols disperses a una alçada de 2100 ft, Cumulus congestus.
Cel ennuvolat a una alçada de 13000 ft
Cel ennuvolat a una alçada de 30000 ft

METAR: PTSA 162350Z 05008KT 10SM SCT021TCU BKN130 BKN300 31/25 A2986 RMK TCU SE-S LAST

Hora: 23:41 (12:41 UTC)

Pronòstic

L'informe es va fer fa 13 hores i 19 minuts, a les 23:22 UTC
Pronòstic vàlid del 17 a les 00 UTC al 17 a les 24 UTC
Vent 6 kt del Oest/Nord-Oest
Visibilitat: 10 km
Núvols disperses a una alçada de 1800 ft
Núvols disperses a una alçada de 4000 ft
Cel ennuvolat a una alçada de 14000 ft
xàfecs en les proximitats

TAF: PTSA 162322Z 1700/1724 29006KT P6SM VCSH SCT018 SCT040 BKN140

Observacions i pronòstics meteorològics de més de 4000 aeroports (METAR i TAF).

Les estacions disponibles són els punts grocs i vermells al mapa.

Posi el ratolí al punt desitjat per veure el nom de l'estació.

Feu clic per veure les observacions i els pronòstics meteorològics.

Per canviar el mapa: feu clic els botons verds amb una creu de color negre per apropar; al botó verd amb un guió per allunyar la imatge; o en les fletxes verdes per a mapes adjacents.


METAR-TAF: